Time;durP1;ratioP1;P1;durP2;ratioP2;P2;SDS_P1;SDS_P2;PMS_P1;PMS_P2;Temp;Humidity;BMP_temperature;BMP_pressure;BME280_temperature;BME280_humidity;BME280_pressure;Samples;Min_cycle;Max_cycle;Signal;HPM_P1;HPM_P2
2022/06/09 00:02:03;;;;;;;0.90;0.90;;;15.30;99.90;;;;;;5055192;28;20592;-38
2022/06/09 00:04:34;;;;;;;1.33;1.10;;;15.30;99.90;;;;;;5059758;28;20820;-38
2022/06/09 00:07:07;;;;;;;2.83;0.85;;;15.20;99.90;;;;;;5063793;28;20027;-38
2022/06/09 00:09:37;;;;;;;0.88;0.88;;;15.10;99.90;;;;;;5053862;28;20532;-38
2022/06/09 00:12:04;;;;;;;0.80;0.80;;;15.20;99.90;;;;;;5060373;28;20032;-38
2022/06/09 00:14:29;;;;;;;0.88;0.88;;;15.20;99.90;;;;;;5062009;28;20116;-36
2022/06/09 00:16:56;;;;;;;1.63;0.70;;;15.20;99.90;;;;;;5062017;28;20118;-37
2022/06/09 00:19:21;;;;;;;1.55;0.77;;;15.10;99.90;;;;;;5051841;28;20473;-35
2022/06/09 00:21:47;;;;;;;1.73;0.63;;;15.20;99.90;;;;;;5060871;28;20052;-38
2022/06/09 00:24:14;;;;;;;1.00;1.00;;;15.10;99.90;;;;;;5063327;28;20127;-38
2022/06/09 00:26:39;;;;;;;0.77;0.77;;;15.10;99.90;;;;;;5059965;28;20139;-38
2022/06/09 00:29:05;;;;;;;0.75;0.75;;;15.00;99.90;;;;;;5063195;28;20098;-37
2022/06/09 00:31:32;;;;;;;0.85;0.85;;;15.00;99.90;;;;;;5052351;28;20808;-38
2022/06/09 00:33:58;;;;;;;0.95;0.90;;;15.00;99.90;;;;;;5056041;28;20036;-38
2022/06/09 00:36:24;;;;;;;0.93;0.90;;;15.00;99.90;;;;;;5063190;28;20029;-37
2022/06/09 00:38:49;;;;;;;0.75;0.75;;;15.10;99.90;;;;;;5057992;28;20438;-37
2022/06/09 00:41:15;;;;;;;1.48;0.88;;;15.00;99.90;;;;;;5060963;28;20090;-36
2022/06/09 00:43:43;;;;;;;1.25;0.77;;;15.00;99.90;;;;;;5062760;28;20462;-38
2022/06/09 00:46:15;;;;;;;1.15;1.00;;;14.90;99.90;;;;;;5061700;28;20029;-38
2022/06/09 00:48:52;;;;;;;1.38;0.70;;;14.90;99.90;;;;;;5055536;28;20064;-35
2022/06/09 00:51:33;;;;;;;0.80;0.80;;;14.80;99.90;;;;;;5057549;28;20035;-37
2022/06/09 00:54:14;;;;;;;0.70;0.70;;;14.70;99.90;;;;;;5060492;28;20024;-38
2022/06/09 00:56:51;;;;;;;1.15;1.00;;;14.70;99.90;;;;;;5062177;28;20037;-38
2022/06/09 00:59:18;;;;;;;0.80;0.80;;;14.70;99.90;;;;;;5060448;28;20546;-38
2022/06/09 01:01:45;;;;;;;0.68;0.68;;;14.70;99.90;;;;;;5052990;28;22416;-38
2022/06/09 01:04:12;;;;;;;1.60;0.90;;;14.70;99.90;;;;;;5061581;28;20021;-38
2022/06/09 01:06:58;;;;;;;1.23;0.70;;;14.70;99.90;;;;;;5062581;28;20400;-38
2022/06/09 01:09:26;;;;;;;0.70;0.70;;;14.60;99.90;;;;;;5058939;28;20024;-38
2022/06/09 01:11:54;;;;;;;1.70;0.70;;;14.70;99.90;;;;;;5054106;28;20039;-35
2022/06/09 01:14:23;;;;;;;0.60;0.60;;;14.60;99.90;;;;;;5060439;28;20028;-38
2022/06/09 01:17:04;;;;;;;0.40;0.40;;;14.60;99.90;;;;;;5067877;28;20048;-34
2022/06/09 01:19:51;;;;;;;1.27;0.75;;;14.50;99.90;;;;;;5069404;28;20490;-38
2022/06/09 01:22:35;;;;;;;1.50;0.90;;;14.50;99.90;;;;;;5072348;28;20472;-38
2022/06/09 01:25:20;;;;;;;0.90;0.77;;;14.40;99.90;;;;;;5058283;28;20426;-35
2022/06/09 01:27:54;;;;;;;0.80;0.80;;;14.40;99.90;;;;;;5068147;28;20374;-38
2022/06/09 01:30:22;;;;;;;0.70;0.70;;;14.40;99.90;;;;;;5081478;28;20082;-37
2022/06/09 01:32:53;;;;;;;0.85;0.60;;;14.40;99.90;;;;;;5078374;28;20028;-38
2022/06/09 01:35:29;;;;;;;1.10;1.00;;;14.40;99.90;;;;;;5077553;28;20038;-37
2022/06/09 01:37:58;;;;;;;0.60;0.60;;;14.40;99.90;;;;;;5078839;28;20087;-38
2022/06/09 01:40:24;;;;;;;2.70;0.70;;;14.40;99.90;;;;;;5058484;28;20175;-38
2022/06/09 01:42:54;;;;;;;1.50;0.75;;;14.30;99.90;;;;;;5068890;28;20056;-37
2022/06/09 01:45:42;;;;;;;0.55;0.55;;;14.40;99.90;;;;;;5077807;28;20032;-38
2022/06/09 01:48:13;;;;;;;1.10;1.02;;;14.30;99.90;;;;;;5075850;28;20099;-38
2022/06/09 01:50:51;;;;;;;1.55;0.70;;;14.40;99.90;;;;;;5077654;28;20080;-37
2022/06/09 01:53:22;;;;;;;0.70;0.70;;;14.30;99.90;;;;;;5078997;28;20032;-38
2022/06/09 01:55:52;;;;;;;0.80;0.80;;;14.30;99.90;;;;;;5063531;28;20566;-35
2022/06/09 01:58:22;;;;;;;0.70;0.70;;;14.20;99.90;;;;;;5068834;28;20060;-37
2022/06/09 02:00:52;;;;;;;3.42;0.93;;;14.30;99.90;;;;;;5070441;28;23388;-36
2022/06/09 02:03:28;;;;;;;0.80;0.80;;;14.20;99.90;;;;;;5064830;28;20111;-38
2022/06/09 02:05:58;;;;;;;1.90;0.90;;;14.20;99.90;;;;;;5074316;28;20032;-38
2022/06/09 02:08:25;;;;;;;0.70;0.70;;;14.20;99.90;;;;;;5075214;28;20028;-37
2022/06/09 02:10:57;;;;;;;0.77;0.77;;;14.30;99.90;;;;;;5059827;28;20024;-36
2022/06/09 02:13:30;;;;;;;0.70;0.70;;;14.30;99.90;;;;;;5079052;28;20845;-38
2022/06/09 02:16:00;;;;;;;0.85;0.52;;;14.30;99.90;;;;;;5067724;28;20404;-36
2022/06/09 02:18:29;;;;;;;3.85;1.27;;;14.30;99.90;;;;;;5077454;28;20037;-36
2022/06/09 02:21:10;;;;;;;1.42;0.75;;;14.30;99.90;;;;;;5053350;28;20048;-38
2022/06/09 02:23:36;;;;;;;1.40;0.80;;;14.40;99.90;;;;;;5072781;28;20024;-38
2022/06/09 02:26:03;;;;;;;1.25;0.73;;;14.40;99.90;;;;;;5075764;28;20032;-38
2022/06/09 02:28:29;;;;;;;1.02;0.70;;;14.50;99.90;;;;;;5064801;28;20029;-38
2022/06/09 02:30:55;;;;;;;1.48;0.80;;;14.50;99.90;;;;;;5051837;28;20094;-36
2022/06/09 02:33:21;;;;;;;4.22;0.90;;;14.50;99.90;;;;;;5068781;28;20025;-36
2022/06/09 02:35:51;;;;;;;0.77;0.70;;;14.50;99.90;;;;;;5073674;28;20042;-36
2022/06/09 02:38:18;;;;;;;1.10;0.80;;;14.50;99.90;;;;;;5064948;28;20028;-38
2022/06/09 02:40:43;;;;;;;0.80;0.80;;;14.50;99.90;;;;;;5069569;28;20028;-38
2022/06/09 02:43:09;;;;;;;1.83;0.70;;;14.50;99.90;;;;;;5073749;28;20031;-38
2022/06/09 02:45:35;;;;;;;0.73;0.73;;;14.50;99.90;;;;;;5059209;28;20024;-38
2022/06/09 02:48:01;;;;;;;0.85;0.85;;;14.30;99.90;;;;;;5067318;28;20032;-38
2022/06/09 02:50:27;;;;;;;1.33;0.90;;;14.20;99.90;;;;;;5076849;28;20036;-38
2022/06/09 02:52:53;;;;;;;0.70;0.70;;;14.10;99.90;;;;;;5063958;28;20042;-35
2022/06/09 02:55:19;;;;;;;1.23;0.80;;;14.20;99.90;;;;;;5074658;28;20032;-38
2022/06/09 02:57:44;;;;;;;2.40;1.10;;;14.20;99.90;;;;;;5069282;28;20082;-39
2022/06/09 03:00:14;;;;;;;1.58;0.90;;;14.30;99.90;;;;;;5066382;28;20035;-38
2022/06/09 03:02:41;;;;;;;2.40;0.80;;;14.30;99.90;;;;;;5069102;28;20447;-37
2022/06/09 03:05:07;;;;;;;5.13;0.80;;;14.30;99.90;;;;;;5076137;28;20111;-38
2022/06/09 03:07:33;;;;;;;0.80;0.80;;;14.30;99.90;;;;;;5066501;28;20082;-38
2022/06/09 03:09:59;;;;;;;0.80;0.80;;;14.30;99.90;;;;;;5076892;28;20481;-36
2022/06/09 03:12:24;;;;;;;1.83;1.05;;;14.30;99.90;;;;;;5059351;28;20040;-38
2022/06/09 03:14:50;;;;;;;0.70;0.70;;;14.40;99.90;;;;;;5069029;28;20081;-38
2022/06/09 03:17:16;;;;;;;0.90;0.80;;;14.30;99.90;;;;;;5078137;28;20024;-36
2022/06/09 03:19:41;;;;;;;1.90;0.98;;;14.40;99.90;;;;;;5068847;28;20633;-37
2022/06/09 03:22:07;;;;;;;2.67;0.98;;;14.40;99.90;;;;;;5066881;28;20090;-39
2022/06/09 03:24:33;;;;;;;1.75;0.80;;;14.40;99.90;;;;;;5066359;28;20560;-36
2022/06/09 03:26:58;;;;;;;0.82;0.82;;;14.30;99.90;;;;;;5063677;28;20040;-35
2022/06/09 03:29:24;;;;;;;1.65;1.10;;;14.40;99.90;;;;;;5059023;28;20036;-38
2022/06/09 03:31:50;;;;;;;1.58;1.00;;;14.40;99.90;;;;;;5068923;28;20441;-35
2022/06/09 03:34:18;;;;;;;0.93;0.93;;;14.30;99.90;;;;;;5072507;28;20032;-38
2022/06/09 03:36:45;;;;;;;1.40;1.08;;;14.40;99.90;;;;;;5063659;28;20024;-37
2022/06/09 03:39:12;;;;;;;2.60;0.98;;;14.40;99.90;;;;;;5066560;28;20059;-35
2022/06/09 03:41:37;;;;;;;1.52;1.00;;;14.40;99.90;;;;;;5061469;28;20074;-38
2022/06/09 03:44:04;;;;;;;1.92;1.08;;;14.40;99.90;;;;;;5068116;28;20064;-38
2022/06/09 03:46:29;;;;;;;1.10;0.90;;;14.50;99.90;;;;;;5069631;28;20147;-37
2022/06/09 03:48:55;;;;;;;0.90;0.90;;;14.40;99.90;;;;;;5072219;28;20465;-38
2022/06/09 03:51:21;;;;;;;2.45;2.22;;;14.40;99.90;;;;;;5068626;28;20021;-38
2022/06/09 03:53:46;;;;;;;1.23;0.88;;;14.50;99.90;;;;;;5065800;28;20024;-38
2022/06/09 03:56:15;;;;;;;1.40;0.88;;;14.60;99.90;;;;;;5068877;28;20374;-38
2022/06/09 03:58:41;;;;;;;;;;;14.60;99.90;;;;;;5061862;28;20043;-38
2022/06/09 04:01:07;;;;;;;1.80;1.05;;;14.50;99.90;;;;;;5062599;28;19928;-35
2022/06/09 04:03:32;;;;;;;1.35;1.00;;;14.60;99.90;;;;;;5056646;28;20024;-38
2022/06/09 04:05:58;;;;;;;1.40;1.30;;;14.60;99.90;;;;;;5074513;28;20061;-38
2022/06/09 04:08:24;;;;;;;1.23;1.13;;;14.40;99.90;;;;;;5072719;28;20054;-36
2022/06/09 04:10:49;;;;;;;1.50;1.40;;;14.30;99.90;;;;;;5059909;28;20073;-38
2022/06/09 04:13:15;;;;;;;5.72;1.40;;;14.30;99.90;;;;;;5066975;28;20056;-37
2022/06/09 04:15:43;;;;;;;3.38;1.23;;;14.40;99.90;;;;;;5052852;28;20035;-38
2022/06/09 04:18:10;;;;;;;1.35;1.25;;;14.50;99.90;;;;;;5071176;28;20033;-37
2022/06/09 04:20:35;;;;;;;1.38;1.27;;;14.40;99.90;;;;;;5072537;28;20048;-36
2022/06/09 04:23:01;;;;;;;1.23;1.17;;;14.30;99.90;;;;;;5064818;28;20052;-38
2022/06/09 04:25:26;;;;;;;2.25;1.30;;;14.30;99.90;;;;;;5066170;28;20020;-37
2022/06/09 04:27:52;;;;;;;6.38;1.23;;;14.30;99.90;;;;;;5078684;28;20078;-38
2022/06/09 04:30:18;;;;;;;1.52;1.40;;;14.30;99.90;;;;;;5058839;28;20040;-36
2022/06/09 04:32:44;;;;;;;0.90;0.90;;;14.40;99.90;;;;;;5063170;28;20021;-35
2022/06/09 04:35:12;;;;;;;2.95;1.15;;;14.40;99.90;;;;;;5072764;28;20647;-37
2022/06/09 04:40:23;;;;;;;1.50;0.90;;;14.30;99.90;;;;;;5066698;28;20051;-38
2022/06/09 04:42:48;;;;;;;2.20;1.20;;;14.40;99.90;;;;;;5065937;28;20024;-37
2022/06/09 04:45:14;;;;;;;3.72;1.20;;;14.40;99.90;;;;;;5059696;28;20495;-38
2022/06/09 04:47:40;;;;;;;1.10;1.10;;;14.40;99.90;;;;;;5065577;28;20035;-38
2022/06/09 04:50:07;;;;;;;1.38;1.27;;;14.40;99.90;;;;;;5074873;28;20021;-37
2022/06/09 04:52:34;;;;;;;1.13;1.02;;;14.40;99.90;;;;;;5075030;28;20070;-37
2022/06/09 04:55:00;;;;;;;1.35;1.25;;;14.50;99.90;;;;;;5061383;28;20036;-37
2022/06/09 04:57:26;;;;;;;1.15;1.10;;;14.60;99.90;;;;;;5063200;28;20111;-36
2022/06/09 04:59:52;;;;;;;1.40;1.25;;;14.60;99.90;;;;;;5066729;28;20078;-37
2022/06/09 05:02:18;;;;;;;1.10;1.10;;;14.70;99.90;;;;;;5064891;28;20485;-35
2022/06/09 05:04:44;;;;;;;1.20;1.13;;;14.60;99.90;;;;;;5071733;28;20029;-38
2022/06/09 05:07:10;;;;;;;2.15;1.20;;;14.70;99.90;;;;;;5073615;28;20036;-38
2022/06/09 05:09:36;;;;;;;1.02;1.02;;;14.60;99.90;;;;;;5069201;28;20043;-37
2022/06/09 05:12:01;;;;;;;1.70;1.20;;;14.60;99.90;;;;;;5061309;28;20047;-37
2022/06/09 05:14:27;;;;;;;1.50;1.05;;;14.70;99.90;;;;;;5081338;28;20024;-37
2022/06/09 05:16:53;;;;;;;1.63;1.02;;;14.70;99.90;;;;;;5072310;28;20035;-38
2022/06/09 05:19:18;;;;;;;1.48;1.35;;;14.70;99.90;;;;;;5067657;28;20028;-38
2022/06/09 05:21:44;;;;;;;1.13;1.10;;;14.80;99.90;;;;;;5074736;28;20090;-38
2022/06/09 05:24:11;;;;;;;1.73;0.90;;;14.80;99.90;;;;;;5069343;28;20048;-38
2022/06/09 05:26:37;;;;;;;1.33;1.00;;;14.70;99.90;;;;;;5058834;28;20033;-38
2022/06/09 05:29:03;;;;;;;1.27;1.15;;;14.80;99.90;;;;;;5065652;28;20027;-38
2022/06/09 05:31:29;;;;;;;0.98;0.85;;;14.90;99.90;;;;;;5071677;28;20043;-37
2022/06/09 05:33:55;;;;;;;0.77;0.77;;;14.90;99.90;;;;;;5076406;28;20037;-37
2022/06/09 05:36:20;;;;;;;2.55;1.73;;;14.90;99.90;;;;;;5073570;28;20029;-36
2022/06/09 05:46:59;;;;;;;1.27;1.08;;;14.90;99.90;;;;;;5062901;28;20035;-38
2022/06/09 05:49:25;;;;;;;0.80;0.80;;;14.90;99.90;;;;;;5080699;28;20397;-38
2022/06/09 05:51:52;;;;;;;0.80;0.80;;;14.70;99.90;;;;;;5059508;28;20033;-38
2022/06/09 05:54:18;;;;;;;0.82;0.82;;;14.70;99.90;;;;;;5068598;28;20032;-35
2022/06/09 05:56:44;;;;;;;1.02;0.80;;;14.70;99.90;;;;;;5069874;28;20475;-38
2022/06/09 05:59:09;;;;;;;1.35;0.70;;;14.60;99.90;;;;;;5068152;28;20024;-38
2022/06/09 06:01:35;;;;;;;1.25;0.90;;;14.60;99.90;;;;;;5065342;28;20051;-37
2022/06/09 06:04:04;;;;;;;0.90;0.90;;;14.50;99.90;;;;;;5061862;28;20077;-38
2022/06/09 06:06:35;;;;;;;;;;;14.50;99.90;;;;;;5064058;28;20132;-35
2022/06/09 06:09:03;;;;;;;0.60;0.60;;;14.40;99.90;;;;;;5067008;28;19912;-38
2022/06/09 06:11:29;;;;;;;0.70;0.70;;;14.40;99.90;;;;;;5058554;28;20119;-36
2022/06/09 06:13:57;;;;;;;0.88;0.50;;;14.40;99.90;;;;;;5072325;28;20087;-36
2022/06/09 06:16:23;;;;;;;0.63;0.63;;;14.30;99.90;;;;;;5066810;28;20082;-37
2022/06/09 06:18:49;;;;;;;0.63;0.60;;;14.30;99.90;;;;;;5070160;28;20115;-38
2022/06/09 06:21:16;;;;;;;1.33;0.82;;;14.20;99.90;;;;;;5076437;28;20135;-37
2022/06/09 06:23:42;;;;;;;0.93;0.77;;;14.20;99.90;;;;;;5052461;28;20068;-38
2022/06/09 06:26:08;;;;;;;0.90;0.80;;;14.10;99.90;;;;;;5063196;28;20553;-38
2022/06/09 06:28:34;;;;;;;0.77;0.77;;;13.90;99.90;;;;;;5066963;28;20021;-35
2022/06/09 06:30:59;;;;;;;0.90;0.90;;;14.00;99.90;;;;;;5070757;28;20560;-36
2022/06/09 06:33:25;;;;;;;1.02;0.95;;;14.00;99.90;;;;;;5073695;28;20031;-38
2022/06/09 06:35:51;;;;;;;1.50;0.90;;;14.00;99.90;;;;;;5071559;28;20055;-35
2022/06/09 06:38:17;;;;;;;0.88;0.88;;;14.00;99.90;;;;;;5063659;28;20051;-38
2022/06/09 06:40:43;;;;;;;0.77;0.68;;;14.00;99.90;;;;;;5061892;28;20027;-38
2022/06/09 06:43:08;;;;;;;1.73;0.80;;;14.00;99.90;;;;;;5077318;28;20037;-38
2022/06/09 06:45:34;;;;;;;0.90;0.85;;;14.10;99.90;;;;;;5073865;28;20030;-38
2022/06/09 06:48:00;;;;;;;1.13;0.93;;;14.10;99.90;;;;;;5077351;28;20024;-35
2022/06/09 06:50:26;;;;;;;0.75;0.75;;;14.00;99.90;;;;;;5078284;28;20024;-38
2022/06/09 06:52:52;;;;;;;0.82;0.73;;;13.90;99.90;;;;;;5073930;28;20037;-38
2022/06/09 06:55:21;;;;;;;1.10;1.10;;;13.90;99.90;;;;;;5060374;28;20031;-38
2022/06/09 06:57:46;;;;;;;0.82;0.68;;;13.90;99.90;;;;;;5067609;28;20107;-38
2022/06/09 07:00:17;;;;;;;1.08;0.98;;;13.80;99.90;;;;;;5076411;28;20120;-38
2022/06/09 07:02:43;;;;;;;2.20;1.30;;;13.80;99.90;;;;;;5069508;28;20037;-38
2022/06/09 07:05:09;;;;;;;1.23;1.13;;;14.00;99.90;;;;;;5063113;28;20032;-38
2022/06/09 07:07:36;;;;;;;1.02;0.68;;;14.10;99.90;;;;;;5070478;28;20035;-37
2022/06/09 07:10:03;;;;;;;1.67;1.58;;;14.20;99.90;;;;;;5064768;28;20726;-35
2022/06/09 07:12:29;;;;;;;1.57;1.03;;;14.10;99.90;;;;;;5059271;28;20116;-38
2022/06/09 07:14:55;;;;;;;1.70;1.05;;;14.00;99.90;;;;;;5059705;28;20749;-35
2022/06/09 07:17:21;;;;;;;1.80;1.20;;;14.10;99.90;;;;;;5075629;28;20082;-37
2022/06/09 07:19:46;;;;;;;1.85;1.33;;;14.20;99.90;;;;;;5068768;28;20511;-36
2022/06/09 07:22:12;;;;;;;1.45;1.35;;;14.30;99.90;;;;;;5062382;28;22105;-38
2022/06/09 07:24:38;;;;;;;1.60;1.50;;;14.30;99.90;;;;;;5061115;28;20386;-36
2022/06/09 07:27:04;;;;;;;1.63;1.50;;;14.30;99.90;;;;;;5070533;28;20055;-35
2022/06/09 07:29:31;;;;;;;1.77;1.45;;;14.40;99.90;;;;;;5062509;28;20028;-38
2022/06/09 07:31:57;;;;;;;2.97;1.63;;;14.60;99.90;;;;;;5075356;28;20047;-36
2022/06/09 07:34:23;;;;;;;2.28;1.55;;;14.60;99.90;;;;;;5073890;28;20028;-36
2022/06/09 07:36:48;;;;;;;2.67;1.65;;;14.70;99.90;;;;;;5071067;28;20078;-36
2022/06/09 07:39:14;;;;;;;8.02;1.90;;;14.70;99.90;;;;;;5064968;28;20052;-38
2022/06/09 07:41:40;;;;;;;5.95;1.88;;;14.70;99.90;;;;;;5076143;28;20028;-35
2022/06/09 07:44:08;;;;;;;1.83;1.73;;;14.60;99.90;;;;;;5076156;28;20028;-37
2022/06/09 07:46:34;;;;;;;2.35;2.03;;;14.70;99.90;;;;;;5074707;28;20033;-38
2022/06/09 07:49:01;;;;;;;2.53;1.42;;;15.00;99.90;;;;;;5076557;28;20020;-36
2022/06/09 07:51:29;;;;;;;2.55;1.70;;;15.30;99.90;;;;;;5072035;28;20127;-38
2022/06/09 07:53:55;;;;;;;3.10;1.80;;;15.60;99.90;;;;;;5058742;28;20086;-38
2022/06/09 07:56:22;;;;;;;2.25;1.15;;;15.60;99.90;;;;;;5068791;28;20035;-36
2022/06/09 07:58:47;;;;;;;2.70;1.45;;;15.40;99.90;;;;;;5073075;28;20043;-39
2022/06/09 08:01:14;;;;;;;3.42;1.25;;;15.40;99.90;;;;;;5075882;28;20032;-38
2022/06/09 08:03:41;;;;;;;2.05;1.25;;;15.40;99.90;;;;;;5057256;28;20120;-37
2022/06/09 08:06:08;;;;;;;3.50;1.88;;;15.30;99.90;;;;;;5065650;28;20102;-38
2022/06/09 08:08:34;;;;;;;3.08;1.60;;;15.30;99.90;;;;;;5069439;28;20024;-38
2022/06/09 08:11:00;;;;;;;3.92;1.65;;;15.30;99.90;;;;;;5059460;28;20032;-38
2022/06/09 08:13:26;;;;;;;1.85;1.75;;;15.40;99.90;;;;;;5076298;28;20032;-38
2022/06/09 08:15:52;;;;;;;3.03;1.70;;;15.70;99.90;;;;;;5074526;28;20035;-38
2022/06/09 08:18:17;;;;;;;5.75;1.95;;;16.00;99.90;;;;;;5061027;28;20070;-36
2022/06/09 08:20:44;;;;;;;4.35;1.60;;;16.20;99.90;;;;;;5068106;28;20048;-35
2022/06/09 08:23:14;;;;;;;1.67;1.58;;;16.10;99.90;;;;;;5077624;28;20082;-37
2022/06/09 08:25:41;;;;;;;6.28;1.83;;;15.90;99.90;;;;;;5076154;28;20024;-38
2022/06/09 08:28:07;;;;;;;2.78;1.63;;;15.90;99.90;;;;;;5064140;28;20116;-37
2022/06/09 08:30:34;;;;;;;2.15;1.80;;;16.00;99.90;;;;;;5064067;28;20020;-36
2022/06/09 08:33:00;;;;;;;1.10;1.10;;;16.30;99.90;;;;;;5060873;28;20040;-37
2022/06/09 08:35:26;;;;;;;1.88;1.38;;;16.70;99.90;;;;;;5069467;28;20073;-38
2022/06/09 08:37:53;;;;;;;1.10;1.10;;;16.80;99.90;;;;;;5075806;28;20436;-37
2022/06/09 08:40:23;;;;;;;1.30;1.20;;;16.50;99.90;;;;;;5064155;28;20020;-35
2022/06/09 08:43:23;;;;;;;2.30;1.10;;;16.40;99.90;;;;;;5071847;28;20032;-39
2022/06/09 08:45:54;;;;;;;2.75;1.30;;;16.10;99.90;;;;;;5069234;28;20103;-38
2022/06/09 08:48:29;;;;;;;1.92;1.00;;;15.80;99.90;;;;;;5060796;28;20704;-38
2022/06/09 08:50:59;;;;;;;2.13;1.20;;;15.80;99.90;;;;;;5065190;28;20366;-37
2022/06/09 08:53:32;;;;;;;1.52;1.20;;;15.80;99.90;;;;;;5076964;28;20039;-35
2022/06/09 08:56:21;;;;;;;2.15;1.20;;;15.80;99.90;;;;;;5070661;28;20039;-37
2022/06/09 08:58:56;;;;;;;2.50;1.30;;;16.00;99.90;;;;;;5065265;28;20123;-38
2022/06/09 09:01:29;;;;;;;2.90;1.20;;;16.40;99.90;;;;;;5069916;28;20032;-38
2022/06/09 09:04:05;;;;;;;2.25;1.27;;;16.30;99.90;;;;;;5062057;28;20033;-38
2022/06/09 09:06:38;;;;;;;2.92;1.75;;;16.50;99.90;;;;;;5069307;28;20195;-38
2022/06/09 09:09:24;;;;;;;1.52;1.15;;;16.60;99.90;;;;;;5067946;28;20463;-36
2022/06/09 09:11:58;;;;;;;3.70;1.60;;;17.00;99.90;;;;;;5065334;28;20048;-38
2022/06/09 09:14:51;;;;;;;1.25;1.15;;;16.70;99.90;;;;;;5059241;28;20508;-38
2022/06/09 09:17:43;;;;;;;3.45;0.73;;;16.40;97.70;;;;;;5073612;28;20032;-38
2022/06/09 09:20:37;;;;;;;0.73;0.73;;;16.30;99.90;;;;;;5064348;28;20139;-37
2022/06/09 09:23:16;;;;;;;3.47;0.80;;;16.30;99.00;;;;;;5063203;28;20051;-34
2022/06/09 09:26:02;;;;;;;0.95;0.77;;;16.60;97.90;;;;;;5056758;28;20020;-35
2022/06/09 09:28:39;;;;;;;1.48;0.70;;;16.80;96.20;;;;;;5073784;28;20480;-36
2022/06/09 09:31:35;;;;;;;0.90;0.90;;;16.90;94.20;;;;;;5066920;28;20036;-38
2022/06/09 09:34:03;;;;;;;1.05;0.60;;;17.00;98.90;;;;;;5065282;28;20438;-35
2022/06/09 09:36:35;;;;;;;1.00;0.68;;;17.20;92.40;;;;;;5069304;28;20105;-34
2022/06/09 09:39:17;;;;;;;2.80;0.80;;;17.10;90.70;;;;;;5075456;28;20489;-38
2022/06/09 09:41:44;;;;;;;1.33;0.85;;;17.20;92.00;;;;;;5066697;28;20040;-35
2022/06/09 09:44:22;;;;;;;1.27;0.60;;;17.30;94.30;;;;;;5073138;28;20115;-38
2022/06/09 09:46:52;;;;;;;0.90;0.90;;;17.30;91.30;;;;;;5061709;28;20032;-36
2022/06/09 09:49:35;;;;;;;1.10;0.63;;;17.30;91.00;;;;;;5072109;28;20032;-38
2022/06/09 09:52:01;;;;;;;0.80;0.80;;;17.10;93.10;;;;;;5074725;28;20027;-36
2022/06/09 09:54:31;;;;;;;2.53;0.90;;;17.30;89.00;;;;;;5068352;28;20029;-38
2022/06/09 09:57:19;;;;;;;1.17;1.00;;;17.30;90.90;;;;;;5072103;28;20036;-37
2022/06/09 09:59:48;;;;;;;0.90;0.90;;;17.30;90.00;;;;;;5066497;28;20020;-36
2022/06/09 10:10:57;;;;;;;3.30;0.70;;;16.70;91.80;;;;;;5067842;28;20071;-37
2022/06/09 10:13:30;;;;;;;1.27;0.50;;;16.90;94.10;;;;;;5063955;28;20445;-38
2022/06/09 10:15:56;;;;;;;2.80;0.95;;;17.10;91.60;;;;;;5061553;28;20067;-38
2022/06/09 10:18:23;;;;;;;1.13;0.70;;;17.10;94.20;;;;;;5063789;28;20024;-38
2022/06/09 10:21:04;;;;;;;1.85;0.82;;;17.20;93.40;;;;;;5073435;28;20110;-38
2022/06/09 10:23:32;;;;;;;2.15;0.93;;;16.90;92.00;;;;;;5076794;28;20465;-38
2022/06/09 10:26:07;;;;;;;0.80;0.80;;;16.60;94.90;;;;;;5068930;28;20082;-38
2022/06/09 10:28:53;;;;;;;2.42;1.10;;;16.60;93.90;;;;;;5070060;28;20362;-36
2022/06/09 10:31:40;;;;;;;2.00;0.95;;;16.70;93.80;;;;;;5064549;28;20029;-37
2022/06/09 10:34:33;;;;;;;1.20;0.90;;;16.70;94.00;;;;;;5066061;28;20046;-38
2022/06/09 10:37:27;;;;;;;0.65;0.60;;;16.70;95.00;;;;;;5069132;28;20102;-35
2022/06/09 10:40:03;;;;;;;0.80;0.80;;;16.80;88.40;;;;;;5078022;28;20028;-37
2022/06/09 10:42:50;;;;;;;2.30;0.82;;;16.90;92.20;;;;;;5071980;28;20050;-37
2022/06/09 10:45:39;;;;;;;2.45;0.90;;;16.90;93.80;;;;;;5070567;28;20024;-35
2022/06/09 10:55:14;;;;;;;1.77;0.88;;;17.30;92.80;;;;;;5071981;28;20357;-37
2022/06/09 10:58:10;;;;;;;1.70;0.70;;;17.30;90.70;;;;;;5067281;28;20042;-37
2022/06/09 11:00:39;;;;;;;2.20;0.90;;;17.00;91.70;;;;;;5072388;28;20020;-38
2022/06/09 11:03:42;;;;;;;0.80;0.80;;;17.00;90.50;;;;;;5060358;28;20071;-36
2022/06/09 11:06:24;;;;;;;0.70;0.70;;;17.00;93.80;;;;;;5067783;28;20028;-38
2022/06/09 11:08:56;;;;;;;0.70;0.70;;;17.00;92.40;;;;;;5074484;28;20025;-36
2022/06/09 11:11:53;;;;;;;1.65;0.82;;;17.20;90.70;;;;;;5076589;28;20621;-34
2022/06/09 11:14:40;;;;;;;1.92;1.00;;;17.30;94.00;;;;;;5066154;28;20036;-36
2022/06/09 11:17:38;;;;;;;1.40;0.95;;;17.60;93.40;;;;;;5069280;28;20078;-34
2022/06/09 11:20:27;;;;;;;0.43;0.43;;;17.50;88.20;;;;;;5076718;28;20048;-37
2022/06/09 11:23:34;;;;;;;2.33;0.70;;;17.00;83.90;;;;;;5073537;28;20033;-37
2022/06/09 11:26:30;;;;;;;2.53;0.73;;;16.90;90.30;;;;;;5068150;28;20120;-36
2022/06/09 11:29:07;;;;;;;1.25;0.70;;;16.80;89.30;;;;;;5059088;28;20052;-36
2022/06/09 11:31:52;;;;;;;1.85;0.88;;;16.90;90.90;;;;;;5071040;28;20032;-38
2022/06/09 11:34:29;;;;;;;0.80;0.80;;;16.90;92.30;;;;;;5062771;28;20119;-36
2022/06/09 11:37:17;;;;;;;2.10;0.82;;;16.80;92.50;;;;;;5062280;28;20405;-37
2022/06/09 11:40:14;;;;;;;1.63;0.87;;;17.00;93.30;;;;;;5069087;28;20029;-38
2022/06/09 11:42:45;;;;;;;2.25;1.00;;;16.90;90.90;;;;;;5065680;28;20290;-35
2022/06/09 11:45:23;;;;;;;1.17;0.73;;;17.10;94.20;;;;;;5056551;28;20506;-38
2022/06/09 11:47:51;;;;;;;0.85;0.80;;;17.30;92.70;;;;;;5066332;28;20617;-37
2022/06/09 11:50:19;;;;;;;2.75;0.82;;;17.40;90.30;;;;;;5075927;28;20021;-37
2022/06/09 11:52:49;;;;;;;0.43;0.43;;;17.70;91.20;;;;;;5068082;28;20032;-38
2022/06/09 11:58:45;;;;;;;1.00;0.80;;;17.60;88.10;;;;;;5067760;28;20054;-36
2022/06/09 12:01:25;;;;;;;1.10;0.98;;;17.50;87.20;;;;;;5055055;28;20040;-37
2022/06/09 12:04:12;;;;;;;2.47;0.75;;;17.80;85.00;;;;;;5069326;28;20124;-35
2022/06/09 12:06:59;;;;;;;3.70;2.60;;;17.80;84.90;;;;;;5038563;28;20578;-38
2022/06/09 12:09:57;;;;;;;1.08;0.90;;;17.80;85.10;;;;;;5064479;28;20020;-37
2022/06/09 12:12:32;;;;;;;2.42;1.00;;;18.00;87.70;;;;;;5077548;28;20029;-37
2022/06/09 12:15:22;;;;;;;3.45;1.13;;;17.90;79.30;;;;;;5071072;28;20020;-34
2022/06/09 12:17:56;;;;;;;2.47;1.10;;;17.90;81.60;;;;;;5047022;28;20097;-38
2022/06/09 12:20:43;;;;;;;2.97;0.80;;;17.80;82.80;;;;;;5057892;28;20060;-36
2022/06/09 12:23:31;;;;;;;1.30;0.88;;;17.80;82.60;;;;;;5060156;28;20111;-38
2022/06/09 12:26:09;;;;;;;1.73;1.08;;;17.80;82.70;;;;;;5058132;28;20064;-38
2022/06/09 12:28:53;;;;;;;1.85;1.08;;;17.70;84.70;;;;;;5069044;28;20523;-35
2022/06/09 12:31:24;;;;;;;1.77;0.80;;;17.70;85.60;;;;;;5061520;28;20037;-38
2022/06/09 12:34:13;;;;;;;1.30;1.00;;;17.70;84.30;;;;;;5069608;28;20069;-37
2022/06/09 12:36:48;;;;;;;0.60;0.60;;;17.80;80.90;;;;;;5065304;28;20033;-35
2022/06/09 12:39:21;;;;;;;2.97;0.90;;;17.60;83.90;;;;;;5068458;28;20028;-38
2022/06/09 12:42:03;;;;;;;1.35;0.80;;;17.60;86.90;;;;;;5071660;28;20065;-38
2022/06/09 12:44:32;;;;;;;1.50;0.82;;;17.50;84.80;;;;;;5071929;28;20035;-38
2022/06/09 12:47:20;;;;;;;2.72;0.93;;;17.60;85.60;;;;;;5073208;28;20115;-36
2022/06/09 12:50:03;;;;;;;1.55;1.10;;;17.50;76.80;;;;;;5063780;28;20070;-35
2022/06/09 12:52:43;;;;;;;0.70;0.60;;;17.30;76.80;;;;;;5064179;28;20402;-35
2022/06/09 12:55:19;;;;;;;1.48;0.70;;;17.30;74.10;;;;;;5067496;28;20039;-38
2022/06/09 12:57:48;;;;;;;2.95;1.25;;;17.30;82.60;;;;;;5058414;28;20487;-38
2022/06/09 13:00:16;;;;;;;1.45;1.35;;;17.20;77.50;;;;;;5066213;28;20028;-38
2022/06/09 13:02:43;;;;;;;1.90;0.68;;;17.10;80.80;;;;;;5071646;28;20040;-37
2022/06/09 13:05:12;;;;;;;0.80;0.80;;;17.20;81.90;;;;;;5068819;28;20404;-37
2022/06/09 13:07:46;;;;;;;1.42;0.82;;;17.30;78.90;;;;;;5050749;28;20024;-37
2022/06/09 13:10:27;;;;;;;1.02;0.60;;;17.40;84.40;;;;;;5067377;28;20560;-37
2022/06/09 13:13:13;;;;;;;1.17;0.80;;;17.60;79.70;;;;;;5056266;28;20117;-38
2022/06/09 13:15:52;;;;;;;0.93;0.73;;;17.80;84.70;;;;;;5074851;28;20106;-35
2022/06/09 13:18:29;;;;;;;2.50;1.02;;;18.00;81.70;;;;;;5073767;28;20031;-38
2022/06/09 13:21:07;;;;;;;0.63;0.63;;;18.10;82.60;;;;;;5078795;28;20417;-36
2022/06/09 13:23:34;;;;;;;1.48;0.70;;;18.20;77.90;;;;;;5074188;28;20033;-38
2022/06/09 13:26:01;;;;;;;1.38;0.70;;;18.30;76.60;;;;;;5069235;28;20032;-38
2022/06/09 13:28:29;;;;;;;3.13;1.00;;;18.40;75.20;;;;;;5064309;28;20017;-35
2022/06/09 13:30:56;;;;;;;1.20;0.70;;;18.50;74.50;;;;;;5066591;28;20079;-35
2022/06/09 13:33:35;;;;;;;1.50;0.70;;;18.50;71.00;;;;;;5069457;28;20032;-37
2022/06/09 13:36:24;;;;;;;3.00;0.80;;;18.50;72.80;;;;;;5076582;28;20021;-36
2022/06/09 13:38:50;;;;;;;1.33;0.60;;;18.80;71.60;;;;;;5079614;28;20098;-38
2022/06/09 13:41:18;;;;;;;0.70;0.70;;;18.90;69.30;;;;;;5065688;28;20538;-38